Time;durP1;ratioP1;P1;durP2;ratioP2;P2;SDS_P1;SDS_P2;PMS_P1;PMS_P2;Temp;Humidity;BMP_temperature;BMP_pressure;BME280_temperature;BME280_humidity;BME280_pressure;Samples;Min_cycle;Max_cycle;Signal;HPM_P1;HPM_P2
2023/07/28 00:03:28;;;;;;;7.63;6.47;;;;;;;18.54;100.00;100445.88;10297372;28;20035;-74
2023/07/28 00:08:28;;;;;;;17.88;6.07;;;;;;;18.55;100.00;100444.78;10297262;28;20463;-74
2023/07/28 00:13:28;;;;;;;11.48;6.18;;;;;;;18.52;100.00;100437.88;10297595;28;20043;-74
2023/07/28 00:18:29;;;;;;;14.18;6.00;;;;;;;18.57;100.00;100439.84;10296216;28;20043;-74
2023/07/28 00:23:29;;;;;;;14.40;6.47;;;;;;;18.57;100.00;100434.38;10296672;28;20030;-74
2023/07/28 00:28:30;;;;;;;15.63;7.07;;;;;;;18.56;100.00;100438.19;10296241;28;20145;-74
2023/07/28 00:33:30;;;;;;;9.07;6.50;;;;;;;18.61;100.00;100442.91;10295691;28;20047;-74
2023/07/28 00:38:30;;;;;;;13.43;6.88;;;;;;;18.63;100.00;100446.19;10296712;28;20130;-74
2023/07/28 00:43:31;;;;;;;11.48;6.30;;;;;;;18.64;100.00;100437.72;10279857;28;20039;-74
2023/07/28 00:48:31;;;;;;;15.27;7.20;;;;;;;18.65;100.00;100441.28;10295045;28;20035;-74
2023/07/28 00:53:32;;;;;;;8.73;5.68;;;;;;;18.65;100.00;100433.06;10295942;28;20373;-74
2023/07/28 00:58:32;;;;;;;8.52;5.93;;;;;;;18.64;100.00;100429.50;10295278;28;20113;-74
2023/07/28 01:03:33;;;;;;;12.98;6.78;;;;;;;18.66;100.00;100424.53;10293775;28;20434;-74
2023/07/28 01:08:40;;;;;;;19.67;7.78;;;;;;;18.66;100.00;100435.53;10294809;28;20039;-74
2023/07/28 01:13:41;;;;;;;20.45;6.35;;;;;;;18.66;100.00;100435.53;10277532;28;20041;-74
2023/07/28 01:18:41;;;;;;;16.80;7.75;;;;;;;18.69;100.00;100435.00;10294315;28;20390;-74
2023/07/28 01:23:48;;;;;;;15.57;8.02;;;;;;;18.74;100.00;100434.25;10277486;28;20118;-74
2023/07/28 01:28:48;;;;;;;8.38;5.22;;;;;;;18.75;100.00;100424.94;10276651;28;20051;-74
2023/07/28 01:33:49;;;;;;;18.42;7.70;;;;;;;18.77;100.00;100433.72;10261665;28;20035;-74
2023/07/28 01:38:49;;;;;;;22.13;6.55;;;;;;;18.77;100.00;100440.03;10293977;28;20047;-74
2023/07/28 01:43:50;;;;;;;7.88;6.20;;;;;;;18.79;100.00;100442.50;10292546;28;20031;-69
2023/07/28 01:48:50;;;;;;;13.23;6.00;;;;;;;18.84;100.00;100439.00;10274544;28;20401;-70
2023/07/28 01:53:50;;;;;;;12.90;6.90;;;;;;;18.85;100.00;100444.19;10275299;28;20122;-69
2023/07/28 01:58:51;;;;;;;13.95;7.25;;;;;;;18.86;100.00;100445.88;10275826;28;20411;-70
2023/07/28 02:03:51;;;;;;;32.65;7.43;;;;;;;18.88;100.00;100440.09;10292299;28;20034;-69
2023/07/28 02:08:52;;;;;;;11.30;7.13;;;;;;;18.89;100.00;100436.25;10293494;28;20462;-70
2023/07/28 02:13:52;;;;;;;16.50;6.63;;;;;;;18.89;100.00;100439.84;10291645;28;20035;-70
2023/07/28 02:18:53;;;;;;;22.35;7.15;;;;;;;18.86;100.00;100439.53;10292884;28;20043;-70
2023/07/28 02:23:54;;;;;;;17.48;6.50;;;;;;;18.79;100.00;100443.34;10292925;28;20038;-70
2023/07/28 02:28:54;;;;;;;11.90;7.50;;;;;;;18.77;100.00;100436.47;10292142;28;20058;-69
2023/07/28 02:33:55;;;;;;;13.02;7.68;;;;;;;18.75;100.00;100433.16;10293975;28;20051;-70
2023/07/28 02:38:55;;;;;;;16.38;8.48;;;;;;;18.75;100.00;100444.13;10293132;28;20047;-70
2023/07/28 02:43:56;;;;;;;10.85;6.88;;;;;;;18.75;100.00;100439.47;10291675;28;20035;-70
2023/07/28 02:48:56;;;;;;;14.73;7.22;;;;;;;18.75;100.00;100435.91;10273775;28;20106;-70
2023/07/28 02:53:56;;;;;;;20.65;8.80;;;;;;;18.77;100.00;100442.78;10275153;28;20042;-70
2023/07/28 02:58:57;;;;;;;22.75;8.88;;;;;;;18.78;100.00;100449.91;10292521;28;20038;-69
2023/07/28 03:03:57;;;;;;;14.20;7.15;;;;;;;18.79;100.00;100453.47;10298942;28;20535;-70
2023/07/28 03:09:01;;;;;;;11.02;7.03;;;;;;;18.76;100.00;100463.09;10298473;28;20485;-69
2023/07/28 03:14:02;;;;;;;17.40;7.45;;;;;;;18.78;100.00;100465.53;10297131;28;20387;-70
2023/07/28 03:19:02;;;;;;;13.63;6.20;;;;;;;18.79;100.00;100467.19;10298367;28;20039;-70
2023/07/28 03:24:03;;;;;;;12.60;8.10;;;;;;;18.79;100.00;100470.78;10297883;28;20042;-70
2023/07/28 03:29:04;;;;;;;16.83;9.43;;;;;;;18.80;100.00;100472.44;10297753;28;20051;-69
2023/07/28 03:34:04;;;;;;;20.20;7.65;;;;;;;18.81;100.00;100471.34;10297654;28;20074;-70
2023/07/28 03:39:05;;;;;;;21.92;9.57;;;;;;;18.82;100.00;100472.16;10296550;28;20035;-69
2023/07/28 03:44:05;;;;;;;27.20;8.43;;;;;;;18.82;100.00;100483.13;10296444;28;20383;-70
2023/07/28 03:49:06;;;;;;;25.98;9.13;;;;;;;18.84;100.00;100483.69;10296327;28;20034;-70
2023/07/28 03:54:06;;;;;;;17.70;7.22;;;;;;;18.87;100.00;100493.34;10280702;28;20047;-70
2023/07/28 03:59:06;;;;;;;11.73;6.32;;;;;;;18.88;100.00;100484.81;10296947;28;20039;-70
2023/07/28 04:04:07;;;;;;;23.83;8.25;;;;;;;18.88;100.00;100495.78;10297126;28;20386;-70
2023/07/28 04:09:08;;;;;;;24.67;7.20;;;;;;;18.90;100.00;100485.41;10297273;28;20043;-69
2023/07/28 04:14:08;;;;;;;16.00;6.88;;;;;;;18.90;100.00;100484.56;10295957;28;20031;-70
2023/07/28 04:19:08;;;;;;;20.25;8.43;;;;;;;18.92;100.00;100487.88;10295621;28;20039;-70
2023/07/28 04:24:09;;;;;;;23.75;7.93;;;;;;;18.95;100.00;100490.09;10294839;28;20091;-69
2023/07/28 04:29:09;;;;;;;19.33;7.63;;;;;;;18.96;100.00;100489.00;10278599;28;20085;-69
2023/07/28 04:34:10;;;;;;;12.52;7.25;;;;;;;19.00;100.00;100503.84;10278961;28;20146;-69
2023/07/28 04:39:10;;;;;;;17.50;7.63;;;;;;;19.00;100.00;100501.09;10295714;28;20092;-70
2023/07/28 04:44:11;;;;;;;8.48;6.88;;;;;;;19.02;100.00;100498.94;10294927;28;20074;-70
2023/07/28 04:49:11;;;;;;;19.77;8.43;;;;;;;19.06;100.00;100500.06;10294699;28;20066;-69
2023/07/28 04:54:11;;;;;;;21.98;7.63;;;;;;;19.09;100.00;100504.19;10277238;28;20062;-69
2023/07/28 04:59:12;;;;;;;18.83;8.52;;;;;;;19.11;100.00;100496.50;10294547;28;20043;-70
2023/07/28 05:04:12;;;;;;;15.20;7.35;;;;;;;19.13;100.00;100499.81;10293935;28;20038;-70
2023/07/28 05:09:12;;;;;;;13.93;7.53;;;;;;;19.18;100.00;100502.63;10293931;28;20375;-69
2023/07/28 05:14:13;;;;;;;14.40;6.32;;;;;;;19.18;100.00;100502.63;10277570;28;20063;-70
2023/07/28 05:19:14;;;;;;;16.48;7.97;;;;;;;19.22;100.00;100512.78;10278180;28;20091;-70
2023/07/28 05:24:14;;;;;;;9.52;6.65;;;;;;;19.27;100.00;100512.84;10293951;28;20086;-69
2023/07/28 05:29:14;;;;;;;14.05;7.53;;;;;;;19.32;100.00;100514.78;10292489;28;20364;-70
2023/07/28 05:34:15;;;;;;;15.73;8.27;;;;;;;19.34;100.00;100518.09;10292971;28;20091;-69
2023/07/28 05:39:15;;;;;;;30.85;7.93;;;;;;;19.38;100.00;100524.69;10292235;28;20038;-70
2023/07/28 05:44:16;;;;;;;12.82;6.72;;;;;;;19.39;100.00;100525.53;10292164;28;20035;-69
2023/07/28 05:49:16;;;;;;;11.85;8.20;;;;;;;19.40;100.00;100527.16;10293550;28;20060;-69
2023/07/28 05:54:16;;;;;;;10.15;7.93;;;;;;;19.42;100.00;100533.22;10291845;28;20491;-71
2023/07/28 05:59:17;;;;;;;12.18;8.07;;;;;;;19.42;100.00;100535.97;10292308;28;20098;-69
2023/07/28 06:04:18;;;;;;;9.65;6.80;;;;;;;19.43;100.00;100535.72;10292129;28;20091;-70
2023/07/28 06:09:18;;;;;;;8.43;6.82;;;;;;;19.51;100.00;100548.13;10293529;28;20379;-71
2023/07/28 06:14:18;;;;;;;21.27;7.15;;;;;;;19.54;100.00;100552.25;10292635;28;20031;-70
2023/07/28 06:19:23;;;;;;;9.60;6.95;;;;;;;19.56;100.00;100550.06;10292182;28;20042;-69
2023/07/28 06:24:24;;;;;;;7.18;6.43;;;;;;;19.56;100.00;100563.78;10292166;28;20528;-69
2023/07/28 06:29:24;;;;;;;15.90;6.72;;;;;;;19.56;100.00;100566.53;10291961;28;20086;-69
2023/07/28 06:34:24;;;;;;;9.02;6.65;;;;;;;19.53;100.00;100581.66;10277883;28;20050;-71
2023/07/28 06:39:25;;;;;;;10.32;7.05;;;;;;;19.54;100.00;100577.78;10300373;28;20049;-69
2023/07/28 06:44:25;;;;;;;8.63;6.35;;;;;;;19.59;100.00;100590.72;10281736;28;20034;-69
2023/07/28 06:49:26;;;;;;;6.97;5.95;;;;;;;19.65;100.00;100585.03;10282654;28;20049;-69
2023/07/28 06:54:26;;;;;;;12.88;6.75;;;;;;;19.66;100.00;100592.19;10281500;28;20109;-69
2023/07/28 06:59:26;;;;;;;8.45;5.72;;;;;;;19.79;100.00;100590.06;10298781;28;20042;-68
2023/07/28 07:04:27;;;;;;;6.35;4.53;;;;;;;19.84;100.00;100590.91;10298616;28;20463;-69
2023/07/28 07:09:27;;;;;;;11.82;4.53;;;;;;;19.90;100.00;100597.25;10298183;28;20035;-69
2023/07/28 07:14:28;;;;;;;9.18;4.30;;;;;;;19.99;100.00;100612.16;10297801;28;20038;-69
2023/07/28 07:19:29;;;;;;;4.57;4.15;;;;;;;20.16;100.00;100612.78;10298085;28;20054;-69
2023/07/28 07:24:29;;;;;;;8.57;5.45;;;;;;;20.38;100.00;100611.75;10297873;28;20030;-69
2023/07/28 07:29:29;;;;;;;6.30;4.20;;;;;;;20.69;100.00;100614.63;10297505;28;20059;-69
2023/07/28 07:34:30;;;;;;;6.82;4.10;;;;;;;20.93;100.00;100614.94;10296766;28;20039;-69
2023/07/28 07:39:30;;;;;;;13.60;4.30;;;;;;;21.04;100.00;100619.38;10297518;28;20154;-69
2023/07/28 07:44:31;;;;;;;6.25;3.78;;;;;;;21.16;100.00;100627.38;10295163;28;20030;-69
2023/07/28 07:49:31;;;;;;;4.10;3.35;;;;;;;21.43;100.00;100621.59;10295976;28;20043;-69
2023/07/28 07:54:32;;;;;;;4.45;3.97;;;;;;;21.48;100.00;100632.63;10296293;28;20042;-69
2023/07/28 07:59:32;;;;;;;4.03;3.72;;;;;;;21.49;100.00;100637.03;10296060;28;20505;-69
2023/07/28 08:04:33;;;;;;;6.03;4.38;;;;;;;21.24;100.00;100648.84;10295054;28;20037;-69
2023/07/28 08:09:34;;;;;;;2.70;2.55;;;;;;;21.24;100.00;100648.84;10280937;28;20445;-69
2023/07/28 08:14:34;;;;;;;3.90;3.60;;;;;;;21.39;100.00;100650.81;10297054;28;20035;-69
2023/07/28 08:19:34;;;;;;;5.45;3.35;;;;;;;21.61;100.00;100654.09;10295763;28;20039;-69
2023/07/28 08:24:35;;;;;;;12.32;3.97;;;;;;;21.87;100.00;100654.88;10277674;28;20030;-69
2023/07/28 08:29:35;;;;;;;3.47;3.20;;;;;;;22.11;100.00;100646.81;10277635;28;20050;-69
2023/07/28 08:34:36;;;;;;;3.70;3.45;;;;;;;22.03;100.00;100650.16;10295697;28;20043;-69
2023/07/28 08:39:36;;;;;;;4.53;3.72;;;;;;;22.01;100.00;100661.44;10294516;28;20451;-69
2023/07/28 08:44:37;;;;;;;10.82;4.53;;;;;;;22.08;100.00;100663.94;10294738;28;20035;-70
2023/07/28 08:49:37;;;;;;;6.80;4.82;;;;;;;22.39;100.00;100670.19;10277708;28;20043;-69
2023/07/28 08:54:37;;;;;;;6.93;4.95;;;;;;;22.39;100.00;100663.84;10277061;28;20034;-69
2023/07/28 08:59:41;;;;;;;4.90;4.45;;;;;;;23.12;100.00;100668.72;10293854;28;20394;-70
2023/07/28 09:04:43;;;;;;;3.92;3.63;;;;;;;22.79;100.00;100673.88;10294203;28;20174;-70
2023/07/28 09:09:43;;;;;;;8.77;4.30;;;;;;;22.49;100.00;100667.41;10293473;28;20031;-70
2023/07/28 09:14:45;;;;;;;6.47;5.00;;;;;;;22.60;100.00;100670.13;10275831;28;20434;-69
2023/07/28 09:19:51;;;;;;;3.20;2.90;;;;;;;22.60;100.00;100661.84;10277488;28;20130;-70
2023/07/28 09:24:52;;;;;;;6.20;4.30;;;;;;;22.55;100.00;100670.13;10293130;28;20534;-70
2023/07/28 09:29:57;;;;;;;8.23;4.47;;;;;;;22.24;100.00;100678.53;10293404;28;20394;-69
2023/07/28 09:35:09;;;;;;;11.90;5.43;;;;;;;22.25;100.00;100680.19;10291460;28;20474;-70
2023/07/28 09:40:13;;;;;;;8.57;5.07;;;;;;;22.28;100.00;100685.16;10293200;28;20043;-69
2023/07/28 09:45:14;;;;;;;5.78;3.60;;;;;;;22.30;100.00;100688.44;10293322;28;20037;-69
2023/07/28 09:50:15;;;;;;;4.72;3.28;;;;;;;22.29;100.00;100695.06;10293755;28;20042;-70
2023/07/28 09:55:16;;;;;;;5.90;3.95;;;;;;;22.74;100.00;100691.28;10292774;28;20122;-69
2023/07/28 10:00:17;;;;;;;6.18;4.82;;;;;;;23.09;100.00;100691.41;10275645;28;20050;-69
2023/07/28 10:05:17;;;;;;;4.80;4.40;;;;;;;22.73;100.00;100702.63;10290891;28;20113;-69
2023/07/28 10:10:18;;;;;;;5.85;4.50;;;;;;;22.66;100.00;100707.63;10291849;28;20448;-70
2023/07/28 10:15:20;;;;;;;7.68;5.10;;;;;;;22.68;100.00;100705.38;10290578;28;20546;-70
2023/07/28 10:20:40;;;;;;;8.85;5.90;;;;;;;23.14;100.00;100702.41;10291130;28;20094;-70
2023/07/28 10:25:41;;;;;;;4.75;4.35;;;;;;;24.01;100.00;100694.25;10274676;28;20026;-71
2023/07/28 10:30:51;;;;;;;8.77;4.80;;;;;;;23.93;100.00;100717.00;10274422;28;20058;-71
2023/07/28 10:35:52;;;;;;;4.75;4.25;;;;;;;23.70;100.00;100712.22;10275629;28;20042;-69
2023/07/28 10:40:53;;;;;;;6.78;3.53;;;;;;;24.05;100.00;100708.31;10292458;28;20043;-70
2023/07/28 10:45:53;;;;;;;5.97;4.10;;;;;;;24.24;100.00;100711.97;10291154;28;20259;-71
2023/07/28 10:50:53;;;;;;;7.82;4.13;;;;;;;24.33;100.00;100720.47;10291503;28;20083;-69
2023/07/28 10:55:54;;;;;;;3.95;3.45;;;;;;;24.08;100.00;100708.53;10291241;28;20034;-68
2023/07/28 11:00:54;;;;;;;8.25;3.65;;;;;;;23.80;100.00;100718.53;10291122;28;20033;-69
2023/07/28 11:05:56;;;;;;;5.28;4.30;;;;;;;23.92;100.00;100723.66;10291115;28;20069;-69
2023/07/28 11:10:56;;;;;;;6.93;4.30;;;;;;;23.96;100.00;100732.19;10292034;28;20035;-69
2023/07/28 11:15:57;;;;;;;10.57;3.95;;;;;;;24.21;100.00;100726.38;10273977;28;20480;-69
2023/07/28 11:20:59;;;;;;;3.22;2.90;;;;;;;24.01;100.00;100735.72;10293904;28;20041;-68
2023/07/28 11:25:59;;;;;;;6.30;3.63;;;;;;;23.89;100.00;100738.06;10297571;28;20035;-69
2023/07/28 11:31:00;;;;;;;7.65;3.28;;;;;;;25.45;100.00;100730.06;10279789;28;20087;-69
2023/07/28 11:36:00;;;;;;;3.08;2.88;;;;;;;25.70;100.00;100737.16;10297664;28;20110;-70
2023/07/28 11:41:02;;;;;;;4.22;3.58;;;;;;;25.48;100.00;100748.06;10297908;28;20050;-69
2023/07/28 11:46:02;;;;;;;10.88;2.85;;;;;;;24.87;100.00;100746.16;10294854;28;20035;-70
2023/07/28 11:51:02;;;;;;;4.38;3.97;;;;;;;24.13;100.00;100750.00;10297136;28;20052;-70
2023/07/28 11:56:03;;;;;;;5.72;3.78;;;;;;;24.19;100.00;100736.94;10279456;28;20031;-69
2023/07/28 12:01:07;;;;;;;4.47;3.88;;;;;;;24.54;100.00;100744.06;10278960;28;20030;-69
2023/07/28 12:06:09;;;;;;;4.78;3.63;;;;;;;25.54;100.00;100746.84;10280317;28;20027;-69
2023/07/28 12:11:14;;;;;;;4.45;3.10;;;;;;;25.20;100.00;100745.13;10296192;28;20054;-69
2023/07/28 12:16:47;;;;;;;3.55;3.25;;;;;;;25.09;100.00;100754.69;10278755;28;20118;-70
2023/07/28 12:21:48;;;;;;;7.70;3.63;;;;;;;24.95;100.00;100759.31;10296330;28;20122;-70
2023/07/28 12:26:50;;;;;;;6.13;3.40;;;;;;;25.42;100.00;100741.75;10295355;28;20121;-69
2023/07/28 12:31:50;;;;;;;9.63;2.88;;;;;;;25.74;100.00;100754.81;10293348;28;20109;-69
2023/07/28 12:36:51;;;;;;;4.38;3.88;;;;;;;25.24;100.00;100754.53;10295556;28;20114;-69
2023/07/28 12:41:51;;;;;;;3.88;2.60;;;;;;;25.93;100.00;100751.22;10294543;28;20053;-69
2023/07/28 12:46:51;;;;;;;4.55;3.22;;;;;;;25.77;100.00;100745.09;10294112;28;20039;-69
2023/07/28 12:51:52;;;;;;;6.70;3.10;;;;;;;25.59;100.00;100752.31;10277931;28;20039;-69
2023/07/28 12:56:53;;;;;;;3.90;3.58;;;;;;;24.99;100.00;100755.66;10294450;28;20419;-69
2023/07/28 13:01:54;;;;;;;3.90;3.33;;;;;;;24.61;100.00;100757.53;10277653;28;20363;-69
2023/07/28 13:06:54;;;;;;;4.43;4.03;;;;;;;24.17;100.00;100761.31;10293298;28;20035;-69
2023/07/28 13:11:55;;;;;;;6.13;3.47;;;;;;;23.65;100.00;100762.84;10294407;28;20042;-69
2023/07/28 13:16:55;;;;;;;5.20;2.65;;;;;;;23.02;100.00;100773.75;10293284;28;20351;-73
2023/07/28 13:21:55;;;;;;;2.47;2.30;;;;;;;22.99;100.00;100772.38;10294132;28;20049;-70
2023/07/28 13:26:57;;;;;;;4.18;2.40;;;;;;;23.03;100.00;100775.38;10293310;28;20058;-70
2023/07/28 13:31:58;;;;;;;2.90;2.70;;;;;;;23.84;100.00;100766.59;10293985;28;20061;-70
2023/07/28 13:36:59;;;;;;;3.50;2.53;;;;;;;23.70;100.00;100764.75;10291692;28;20030;-69
2023/07/28 13:41:59;;;;;;;3.30;2.35;;;;;;;23.14;100.00;100761.25;10292454;28;20466;-69
2023/07/28 13:47:00;;;;;;;2.40;2.20;;;;;;;22.62;100.00;100758.97;10292422;28;20047;-69
2023/07/28 13:52:02;;;;;;;8.10;3.10;;;;;;;21.97;100.00;100762.38;10292270;28;20463;-68
2023/07/28 13:57:02;;;;;;;2.38;1.75;;;;;;;21.41;100.00;100762.38;10291865;28;20435;-68
2023/07/28 14:02:03;;;;;;;4.40;2.88;;;;;;;21.81;100.00;100763.50;10291919;28;20090;-68
2023/07/28 14:07:04;;;;;;;6.95;3.08;;;;;;;21.94;100.00;100756.59;10291386;28;20550;-69
2023/07/28 14:12:05;;;;;;;3.60;3.13;;;;;;;21.74;100.00;100755.50;10292498;28;20451;-68
2023/07/28 14:17:05;;;;;;;7.10;4.15;;;;;;;21.48;100.00;100764.88;10291786;28;20042;-68
2023/07/28 14:22:05;;;;;;;2.78;2.42;;;;;;;21.43;100.00;100762.91;10290239;28;20499;-69
2023/07/28 14:27:06;;;;;;;3.53;2.70;;;;;;;21.41;100.00;100761.53;10274307;28;20118;-68
2023/07/28 14:32:07;;;;;;;4.78;2.92;;;;;;;21.16;100.00;100765.88;10292674;28;20083;-69
2023/07/28 14:37:08;;;;;;;7.47;5.25;;;;;;;20.83;100.00;100775.38;10292166;28;20109;-70
2023/07/28 14:42:08;;;;;;;6.88;6.18;;;;;;;20.09;100.00;100787.31;10273788;28;20359;-68
2023/07/28 14:47:08;;;;;;;12.10;7.50;;;;;;;20.05;100.00;100773.25;10289411;28;20045;-68
2023/07/28 14:52:09;;;;;;;8.65;7.47;;;;;;;20.56;100.00;100773.63;10292957;28;20046;-68
2023/07/28 14:57:14;;;;;;;12.85;8.43;;;;;;;21.09;100.00;100763.38;10297612;28;20050;-68
2023/07/28 15:02:15;;;;;;;12.32;9.60;;;;;;;21.53;100.00;100751.91;10297899;28;20460;-69
2023/07/28 15:07:17;;;;;;;12.10;7.15;;;;;;;21.49;100.00;100749.97;10265483;28;20045;-69
2023/07/28 15:12:18;;;;;;;8.77;6.75;;;;;;;20.98;100.00;100749.84;10298232;28;20360;-69
2023/07/28 15:17:18;;;;;;;9.00;6.43;;;;;;;21.01;100.00;100752.88;10297435;28;20062;-69
2023/07/28 15:22:19;;;;;;;6.38;5.78;;;;;;;21.26;100.00;100743.03;10298434;28;20034;-68
2023/07/28 15:27:19;;;;;;;6.25;5.00;;;;;;;21.11;100.00;100739.13;10297409;28;20078;-68
2023/07/28 15:32:19;;;;;;;9.02;3.55;;;;;;;20.87;100.00;100744.31;10296694;28;20106;-68
2023/07/28 15:37:20;;;;;;;3.03;2.78;;;;;;;20.82;100.00;100740.72;10297931;28;20070;-68
2023/07/28 15:42:20;;;;;;;2.80;2.58;;;;;;;20.81;100.00;100744.56;10298099;28;20076;-68
2023/07/28 15:47:21;;;;;;;2.58;2.10;;;;;;;21.07;100.00;100742.72;10279661;28;20229;-68
2023/07/28 15:52:21;;;;;;;10.80;3.03;;;;;;;21.41;100.00;100743.09;10296358;28;20049;-68
2023/07/28 15:57:22;;;;;;;6.90;2.65;;;;;;;21.52;100.00;100733.72;10297319;28;20050;-68
2023/07/28 16:02:22;;;;;;;5.82;2.83;;;;;;;21.83;100.00;100739.25;10297289;28;20035;-68
2023/07/28 16:07:23;;;;;;;2.63;2.42;;;;;;;22.44;100.00;100741.94;10293888;28;20046;-68
2023/07/28 16:12:23;;;;;;;17.10;2.83;;;;;;;22.77;100.00;100727.72;10278580;28;20070;-68
2023/07/28 16:17:24;;;;;;;7.30;2.70;;;;;;;23.02;100.00;100732.31;10295984;28;20043;-69
2023/07/28 16:22:24;;;;;;;3.78;2.17;;;;;;;22.75;100.00;100726.06;10295423;28;20046;-69
2023/07/28 16:27:25;;;;;;;3.10;2.38;;;;;;;22.67;100.00;100731.34;10296582;28;20065;-68
2023/07/28 16:32:26;;;;;;;2.80;2.42;;;;;;;22.65;100.00;100717.00;10277231;28;20506;-69
2023/07/28 16:37:26;;;;;;;2.95;2.45;;;;;;;22.72;100.00;100723.06;10294983;28;20089;-69
2023/07/28 16:42:27;;;;;;;2.80;2.60;;;;;;;22.80;100.00;100711.41;10294646;28;20475;-69
2023/07/28 16:47:28;;;;;;;2.55;2.35;;;;;;;22.80;100.00;100716.94;10295246;28;20034;-68
2023/07/28 16:52:28;;;;;;;10.32;8.13;;;;;;;22.56;100.00;100718.69;10277382;28;20045;-69
2023/07/28 16:57:29;;;;;;;7.70;3.40;;;;;;;22.19;100.00;100706.13;10294041;28;20043;-68
2023/07/28 17:02:29;;;;;;;1.63;1.52;;;;;;;21.90;100.00;100703.94;10293322;28;20121;-68
2023/07/28 17:07:31;;;;;;;1.70;1.60;;;;;;;21.76;100.00;100708.38;10295746;28;20035;-68
2023/07/28 17:12:31;;;;;;;2.92;2.20;;;;;;;21.68;100.00;100700.66;10294734;28;20126;-68
2023/07/28 17:17:32;;;;;;;1.98;1.77;;;;;;;21.63;100.00;100698.72;10292586;28;20049;-68
2023/07/28 17:22:34;;;;;;;1.58;1.23;;;;;;;21.61;100.00;100697.38;10293530;28;20075;-68
2023/07/28 17:27:34;;;;;;;2.50;1.58;;;;;;;21.46;100.00;100693.50;10293720;28;20066;-68
2023/07/28 17:32:35;;;;;;;1.98;1.77;;;;;;;21.47;100.00;100697.06;10277231;28;20107;-68
2023/07/28 17:37:35;;;;;;;2.47;1.73;;;;;;;21.52;100.00;100700.66;10292936;28;20062;-69
2023/07/28 17:42:36;;;;;;;2.63;2.08;;;;;;;21.55;100.00;100702.88;10293191;28;20069;-68
2023/07/28 17:47:39;;;;;;;4.03;1.45;;;;;;;21.47;100.00;100708.91;10274885;28;20046;-68
2023/07/28 17:52:39;;;;;;;1.90;1.80;;;;;;;21.45;100.00;100715.81;10277061;28;20041;-68
2023/07/28 17:57:40;;;;;;;7.43;1.50;;;;;;;21.45;100.00;100713.91;10275097;28;20038;-68
2023/07/28 18:02:40;;;;;;;1.80;1.67;;;;;;;21.35;100.00;100711.13;10274785;28;20031;-68
2023/07/28 18:07:41;;;;;;;1.83;1.73;;;;;;;21.23;100.00;100716.88;10275662;28;20031;-68
2023/07/28 18:12:41;;;;;;;1.75;1.65;;;;;;;21.14;100.00;100719.31;10292191;28;20497;-68
2023/07/28 18:17:41;;;;;;;2.65;2.13;;;;;;;21.10;100.00;100723.72;10291859;28;20039;-68
2023/07/28 18:22:42;;;;;;;3.17;1.60;;;;;;;21.08;100.00;100714.91;10291252;28;20090;-69
2023/07/28 18:27:42;;;;;;;3.50;1.88;;;;;;;20.99;100.00;100719.28;10292772;28;20031;-68
2023/07/28 18:32:43;;;;;;;1.38;1.27;;;;;;;20.71;100.00;100716.97;10298631;28;20096;-68
2023/07/28 18:37:43;;;;;;;1.38;0.93;;;;;;;20.47;100.00;100728.41;10299678;28;20049;-68
2023/07/28 18:42:44;;;;;;;0.90;0.90;;;;;;;20.29;100.00;100731.63;10300681;28;20038;-68
2023/07/28 18:47:44;;;;;;;2.10;1.38;;;;;;;20.24;100.00;100724.19;10282774;28;20423;-68
2023/07/28 18:52:44;;;;;;;2.97;1.23;;;;;;;20.17;100.00;100729.91;10299047;28;20059;-68
2023/07/28 18:57:45;;;;;;;1.30;1.20;;;;;;;20.09;100.00;100732.31;10300487;28;20088;-68
2023/07/28 19:02:45;;;;;;;6.28;1.83;;;;;;;20.07;100.00;100740.00;10298381;28;20035;-68
2023/07/28 19:07:46;;;;;;;1.75;1.65;;;;;;;19.98;100.00;100729.50;10281249;28;20063;-68
2023/07/28 19:12:46;;;;;;;1.55;1.05;;;;;;;19.88;100.00;100732.19;10298980;28;20039;-69
2023/07/28 19:17:46;;;;;;;2.83;1.15;;;;;;;19.78;100.00;100734.84;10299238;28;20058;-68
2023/07/28 19:22:47;;;;;;;4.22;1.75;;;;;;;19.75;100.00;100721.66;10280475;28;20102;-68
2023/07/28 19:27:47;;;;;;;1.40;1.05;;;;;;;19.71;100.00;100737.81;10298028;28;20046;-68
2023/07/28 19:32:48;;;;;;;2.92;1.30;;;;;;;19.65;100.00;100735.28;10299727;28;20439;-68
2023/07/28 19:37:48;;;;;;;1.80;1.67;;;;;;;19.62;100.00;100733.88;10296327;28;20122;-68
2023/07/28 19:42:51;;;;;;;1.23;1.23;;;;;;;19.55;100.00;100733.25;10297571;28;20043;-68
2023/07/28 19:47:51;;;;;;;3.40;1.52;;;;;;;19.49;100.00;100740.63;10279718;28;20042;-68
2023/07/28 19:52:52;;;;;;;8.88;1.42;;;;;;;19.41;100.00;100754.84;10298367;28;20083;-68
2023/07/28 19:57:52;;;;;;;1.23;1.13;;;;;;;19.41;100.00;100756.75;10296028;28;20042;-68
2023/07/28 20:02:52;;;;;;;0.90;0.90;;;;;;;19.42;100.00;100761.97;10297150;28;20027;-67
2023/07/28 20:07:53;;;;;;;1.83;1.20;;;;;;;19.39;100.00;100751.50;10296281;28;20467;-68
2023/07/28 20:12:53;;;;;;;4.30;1.52;;;;;;;19.32;100.00;100750.91;10296767;28;20054;-69
2023/07/28 20:17:54;;;;;;;6.60;1.30;;;;;;;19.16;100.00;100752.66;10295767;28;20133;-68
2023/07/28 20:22:58;;;;;;;2.75;1.58;;;;;;;18.89;100.00;100752.63;10295828;28;20027;-68
2023/07/28 20:27:59;;;;;;;1.30;1.20;;;;;;;18.71;100.00;100759.22;10295147;28;20378;-68
2023/07/28 20:33:00;;;;;;;4.22;2.03;;;;;;;18.62;100.00;100755.28;10278787;28;20085;-68
2023/07/28 20:38:01;;;;;;;4.22;2.40;;;;;;;18.48;100.00;100754.00;10295551;28;20163;-68
2023/07/28 20:43:01;;;;;;;3.55;0.90;;;;;;;18.41;100.00;100758.81;10277685;28;20470;-68
2023/07/28 20:48:02;;;;;;;1.83;1.73;;;;;;;18.30;100.00;100755.13;10295245;28;20043;-68
2023/07/28 20:53:02;;;;;;;1.52;1.42;;;;;;;18.25;100.00;100742.19;10276803;28;20038;-68
2023/07/28 20:58:03;;;;;;;4.45;1.88;;;;;;;18.23;100.00;100744.34;10276705;28;20042;-67
2023/07/28 21:03:03;;;;;;;1.73;1.45;;;;;;;18.28;100.00;100741.69;10295177;28;20058;-67
2023/07/28 21:08:04;;;;;;;2.10;1.58;;;;;;;18.33;100.00;100727.19;10260707;28;20085;-68
2023/07/28 21:13:08;;;;;;;1.33;1.27;;;;;;;18.26;100.00;100721.91;10294925;28;20041;-68
2023/07/28 21:18:09;;;;;;;3.97;1.92;;;;;;;18.12;100.00;100713.22;10277525;28;20038;-68
2023/07/28 21:23:09;;;;;;;3.30;1.25;;;;;;;18.06;100.00;100718.84;10293601;28;20033;-69
2023/07/28 21:28:11;;;;;;;4.70;2.00;;;;;;;18.00;100.00;100719.88;10294118;28;20133;-68
2023/07/28 21:33:11;;;;;;;1.27;1.17;;;;;;;17.96;100.00;100705.81;10281370;28;20040;-68
2023/07/28 21:38:11;;;;;;;2.85;1.75;;;;;;;17.91;100.00;100713.16;10294958;28;20382;-68
2023/07/28 21:43:12;;;;;;;1.55;1.45;;;;;;;17.82;100.00;100699.06;10293739;28;20067;-67
2023/07/28 21:48:12;;;;;;;1.95;1.58;;;;;;;17.72;100.00;100699.69;10275499;28;20069;-67
2023/07/28 21:53:13;;;;;;;1.88;1.30;;;;;;;17.69;100.00;100704.84;10292857;28;20039;-67
2023/07/28 21:58:13;;;;;;;1.42;1.10;;;;;;;17.60;100.00;100705.25;10291217;28;20047;-68
2023/07/28 22:03:14;;;;;;;2.05;0.88;;;;;;;17.52;100.00;100704.84;10293862;28;20062;-68
2023/07/28 22:08:14;;;;;;;1.63;1.50;;;;;;;17.50;100.00;100704.25;10292242;28;20070;-68
2023/07/28 22:13:14;;;;;;;2.63;1.35;;;;;;;17.50;100.00;100704.25;10292132;28;20094;-68
2023/07/28 22:18:15;;;;;;;2.78;1.70;;;;;;;17.53;100.00;100722.94;10275252;28;20035;-68
2023/07/28 22:23:15;;;;;;;1.60;1.00;;;;;;;17.52;100.00;100716.63;10274734;28;20490;-68
2023/07/28 22:28:16;;;;;;;4.05;1.20;;;;;;;17.54;100.00;100716.38;10291807;28;20067;-68
2023/07/28 22:33:16;;;;;;;5.20;1.83;;;;;;;17.48;100.00;100714.63;10292405;28;20093;-68
2023/07/28 22:38:17;;;;;;;2.65;1.75;;;;;;;17.48;100.00;100720.09;10258456;28;20045;-68
2023/07/28 22:43:17;;;;;;;4.72;1.88;;;;;;;17.47;100.00;100708.31;10293165;28;20093;-68